Time;durP1;ratioP1;P1;durP2;ratioP2;P2;SDS_P1;SDS_P2;PMS_P1;PMS_P2;Temp;Humidity;BMP_temperature;BMP_pressure;BME280_temperature;BME280_humidity;BME280_pressure;Samples;Min_cycle;Max_cycle;Signal;HPM_P1;HPM_P2
2022/04/20 00:00:41;;;;;;;1.73;0.80;;;17.40;56.50;;;;;;5034839;28;20480;-63
2022/04/20 00:03:07;;;;;;;2.00;0.70;;;17.40;56.50;;;;;;5034441;28;20026;-64
2022/04/20 00:05:33;;;;;;;1.65;0.60;;;17.40;56.60;;;;;;5034620;28;20104;-67
2022/04/20 00:08:04;;;;;;;1.08;0.60;;;17.40;56.60;;;;;;5034379;28;20075;-68
2022/04/20 00:10:30;;;;;;;2.13;0.60;;;17.40;56.70;;;;;;5033016;28;20036;-68
2022/04/20 00:12:56;;;;;;;1.50;0.70;;;17.40;56.70;;;;;;5033173;28;20022;-68
2022/04/20 00:15:22;;;;;;;1.65;0.60;;;17.40;56.80;;;;;;5016703;28;20072;-68
2022/04/20 00:17:48;;;;;;;2.20;0.57;;;17.40;56.80;;;;;;5033261;28;20029;-68
2022/04/20 00:20:13;;;;;;;1.20;0.68;;;17.40;56.80;;;;;;5034090;28;20075;-68
2022/04/20 00:22:39;;;;;;;0.93;0.70;;;17.40;56.80;;;;;;5033910;28;20460;-68
2022/04/20 00:25:05;;;;;;;1.23;0.65;;;17.40;56.80;;;;;;5034240;28;20033;-67
2022/04/20 00:27:37;;;;;;;0.85;0.57;;;17.40;56.90;;;;;;5034034;28;20017;-67
2022/04/20 00:30:08;;;;;;;3.13;0.93;;;17.40;56.90;;;;;;5032969;28;20489;-67
2022/04/20 00:32:34;;;;;;;0.98;0.68;;;17.40;57.00;;;;;;5033858;28;20030;-67
2022/04/20 00:34:59;;;;;;;1.58;0.73;;;17.40;57.10;;;;;;5032671;28;20381;-67
2022/04/20 00:37:25;;;;;;;1.58;0.65;;;17.40;57.00;;;;;;5033693;28;20032;-67
2022/04/20 00:39:51;;;;;;;0.95;0.70;;;17.40;57.10;;;;;;5033099;28;20040;-67
2022/04/20 00:42:17;;;;;;;2.25;0.60;;;17.40;57.10;;;;;;5033740;28;20025;-67
2022/04/20 00:44:42;;;;;;;0.60;0.40;;;17.40;57.20;;;;;;5016300;28;20381;-67
2022/04/20 00:47:09;;;;;;;0.95;0.60;;;17.40;57.20;;;;;;5033754;28;20484;-67
2022/04/20 00:49:35;;;;;;;1.30;0.68;;;17.40;57.20;;;;;;5016146;28;20471;-67
2022/04/20 00:52:01;;;;;;;0.98;0.60;;;17.40;57.20;;;;;;5033605;28;20117;-67
2022/04/20 00:54:26;;;;;;;0.70;0.60;;;17.40;57.30;;;;;;5033644;28;20025;-67
2022/04/20 00:56:52;;;;;;;0.93;0.50;;;17.40;57.30;;;;;;5033634;28;20396;-67
2022/04/20 00:59:20;;;;;;;0.55;0.55;;;17.40;57.30;;;;;;5033491;28;20381;-67
2022/04/20 01:01:46;;;;;;;1.02;0.60;;;17.40;57.30;;;;;;5032389;28;20029;-67
2022/04/20 01:04:11;;;;;;;1.02;0.70;;;17.40;57.40;;;;;;5032151;28;20029;-67
2022/04/20 01:06:37;;;;;;;0.98;0.60;;;17.40;58.40;;;;;;5033156;28;20033;-67
2022/04/20 01:09:03;;;;;;;3.53;0.80;;;17.40;57.40;;;;;;5032304;28;20100;-67
2022/04/20 01:11:29;;;;;;;1.52;0.63;;;17.40;57.50;;;;;;5033214;28;20021;-67
2022/04/20 01:13:54;;;;;;;2.20;1.10;;;17.40;57.50;;;;;;5033202;28;20041;-67
2022/04/20 01:16:20;;;;;;;2.90;0.60;;;17.40;57.50;;;;;;5031908;28;20527;-67
2022/04/20 01:18:45;;;;;;;1.52;0.60;;;17.40;57.50;;;;;;5033284;28;20502;-67
2022/04/20 01:21:11;;;;;;;3.15;0.85;;;17.40;57.60;;;;;;5032638;28;20057;-67
2022/04/20 01:23:38;;;;;;;1.75;1.00;;;17.50;57.70;;;;;;5033121;28;20112;-67
2022/04/20 01:26:07;;;;;;;0.88;0.60;;;17.40;57.60;;;;;;5032011;28;20021;-67
2022/04/20 01:28:34;;;;;;;1.17;0.60;;;17.50;57.70;;;;;;5032953;28;20428;-67
2022/04/20 01:31:00;;;;;;;1.38;1.00;;;17.50;57.70;;;;;;5015426;28;20036;-67
2022/04/20 01:33:26;;;;;;;1.92;0.50;;;17.50;57.80;;;;;;5033026;28;20100;-67
2022/04/20 01:35:51;;;;;;;1.40;0.77;;;17.50;57.80;;;;;;5032636;28;20033;-67
2022/04/20 01:38:17;;;;;;;2.15;0.77;;;17.50;57.80;;;;;;5032625;28;20056;-67
2022/04/20 01:40:43;;;;;;;1.30;0.70;;;17.50;57.80;;;;;;5032759;28;20025;-67
2022/04/20 01:43:08;;;;;;;2.35;0.80;;;17.50;57.90;;;;;;5032734;28;20029;-67
2022/04/20 01:45:34;;;;;;;3.70;0.77;;;17.50;57.90;;;;;;5032661;28;20028;-67
2022/04/20 01:48:00;;;;;;;1.45;0.50;;;17.50;57.90;;;;;;5031628;28;20400;-67
2022/04/20 01:50:25;;;;;;;0.95;0.60;;;17.50;58.00;;;;;;5032144;28;20021;-67
2022/04/20 01:52:51;;;;;;;1.77;0.63;;;17.50;58.00;;;;;;5032679;28;20033;-67
2022/04/20 01:55:17;;;;;;;1.48;0.60;;;17.50;58.10;;;;;;5032538;28;20499;-67
2022/04/20 01:57:43;;;;;;;1.50;0.85;;;17.50;58.10;;;;;;5032599;28;20033;-67
2022/04/20 02:00:10;;;;;;;4.85;0.90;;;17.50;58.10;;;;;;5031432;28;20087;-67
2022/04/20 02:02:36;;;;;;;2.42;0.75;;;17.50;58.10;;;;;;5032239;28;20025;-67
2022/04/20 02:05:11;;;;;;;1.45;0.50;;;17.50;58.20;;;;;;5032238;28;20083;-67
2022/04/20 02:07:37;;;;;;;1.13;0.63;;;17.50;58.10;;;;;;5031225;28;20412;-67
2022/04/20 02:10:03;;;;;;;2.20;0.90;;;17.50;58.20;;;;;;5032368;28;20021;-67
2022/04/20 02:12:29;;;;;;;1.02;0.50;;;17.50;58.20;;;;;;5030966;28;20033;-67
2022/04/20 02:14:55;;;;;;;1.50;0.60;;;17.50;58.20;;;;;;5032207;28;20029;-67
2022/04/20 02:17:21;;;;;;;2.15;0.80;;;17.50;58.20;;;;;;5032377;28;20025;-67
2022/04/20 02:19:46;;;;;;;1.15;0.60;;;17.50;58.30;;;;;;5032222;28;20056;-67
2022/04/20 02:22:12;;;;;;;1.83;0.52;;;17.50;58.30;;;;;;5031014;28;20396;-67
2022/04/20 02:24:37;;;;;;;1.48;0.50;;;17.50;58.40;;;;;;5032062;28;20420;-67
2022/04/20 02:27:03;;;;;;;1.15;0.70;;;17.50;58.30;;;;;;5032430;28;20025;-67
2022/04/20 02:29:29;;;;;;;0.90;0.65;;;17.50;58.40;;;;;;5032247;28;20022;-67
2022/04/20 02:31:56;;;;;;;1.30;0.75;;;17.50;58.40;;;;;;5032363;28;20048;-67
2022/04/20 02:34:22;;;;;;;0.63;0.40;;;17.50;58.40;;;;;;5032006;28;20029;-67
2022/04/20 02:36:47;;;;;;;0.70;0.68;;;17.50;58.40;;;;;;5030820;28;20391;-67
2022/04/20 02:39:13;;;;;;;0.93;0.60;;;17.50;58.40;;;;;;5031957;28;20047;-67
2022/04/20 02:41:39;;;;;;;1.38;0.75;;;17.50;58.50;;;;;;5030835;28;20499;-67
2022/04/20 02:44:05;;;;;;;1.83;0.60;;;17.50;58.50;;;;;;5014727;28;20032;-67
2022/04/20 02:46:31;;;;;;;1.00;0.70;;;17.50;58.50;;;;;;5030787;28;20030;-67
2022/04/20 02:48:56;;;;;;;2.25;0.80;;;17.50;58.60;;;;;;5030631;28;20060;-67
2022/04/20 02:51:22;;;;;;;2.20;1.08;;;17.50;58.60;;;;;;5030760;28;20085;-67
2022/04/20 02:53:48;;;;;;;2.38;0.65;;;17.50;58.60;;;;;;5031995;28;20104;-67
2022/04/20 02:56:13;;;;;;;0.75;0.60;;;17.50;58.60;;;;;;5032011;28;20395;-67
2022/04/20 02:58:39;;;;;;;1.05;0.60;;;17.50;58.60;;;;;;5031768;28;20025;-67
2022/04/20 03:01:06;;;;;;;2.13;0.70;;;17.50;58.60;;;;;;5032009;28;20030;-67
2022/04/20 03:03:32;;;;;;;1.58;0.82;;;17.50;58.60;;;;;;5034672;28;20547;-67
2022/04/20 03:05:57;;;;;;;2.00;0.60;;;17.50;58.70;;;;;;5034400;28;20029;-67
2022/04/20 03:08:24;;;;;;;3.10;0.80;;;17.50;58.70;;;;;;5035574;28;20440;-67
2022/04/20 03:10:51;;;;;;;1.55;0.60;;;17.50;58.70;;;;;;5034534;28;20040;-67
2022/04/20 03:13:18;;;;;;;1.58;0.43;;;17.50;58.70;;;;;;5035394;28;20028;-67
2022/04/20 03:15:43;;;;;;;1.13;0.50;;;17.50;58.80;;;;;;5035396;28;20022;-67
2022/04/20 03:18:09;;;;;;;1.35;0.60;;;17.50;58.80;;;;;;5035567;28;20040;-67
2022/04/20 03:20:34;;;;;;;2.10;0.85;;;17.50;58.80;;;;;;5035368;28;20133;-67
2022/04/20 03:23:00;;;;;;;1.70;0.60;;;17.50;58.80;;;;;;5035175;28;20159;-67
2022/04/20 03:25:26;;;;;;;1.48;0.65;;;17.50;58.90;;;;;;5035423;28;20111;-67
2022/04/20 03:27:52;;;;;;;0.98;0.60;;;17.50;58.90;;;;;;5035147;28;20036;-67
2022/04/20 03:30:17;;;;;;;2.08;0.60;;;17.50;58.90;;;;;;5034882;28;20475;-67
2022/04/20 03:32:43;;;;;;;1.25;0.60;;;17.50;58.90;;;;;;5035252;28;20102;-67
2022/04/20 03:35:09;;;;;;;1.45;0.90;;;17.50;58.90;;;;;;5017812;28;20077;-67
2022/04/20 03:37:35;;;;;;;2.40;1.13;;;17.50;59.00;;;;;;5034734;28;20172;-67
2022/04/20 03:40:02;;;;;;;1.95;0.65;;;17.50;59.00;;;;;;5034210;28;20387;-67
2022/04/20 03:42:28;;;;;;;2.83;0.63;;;17.50;59.00;;;;;;5033603;28;20032;-67
2022/04/20 03:44:53;;;;;;;1.85;0.70;;;17.50;59.00;;;;;;5034898;28;20021;-67
2022/04/20 03:47:19;;;;;;;1.35;0.70;;;17.50;59.00;;;;;;5035047;28;20029;-67
2022/04/20 03:49:45;;;;;;;0.85;0.68;;;17.50;59.00;;;;;;5034813;28;20033;-67
2022/04/20 03:52:10;;;;;;;0.63;0.50;;;17.50;59.10;;;;;;5035191;28;20025;-67
2022/04/20 03:54:36;;;;;;;1.15;0.60;;;17.50;59.00;;;;;;5034925;28;20080;-67
2022/04/20 03:57:07;;;;;;;1.23;0.68;;;17.50;59.10;;;;;;5034712;28;20026;-67
2022/04/20 03:59:37;;;;;;;1.15;0.80;;;17.50;59.10;;;;;;5034399;28;20491;-67
2022/04/20 04:02:04;;;;;;;0.98;0.60;;;17.50;59.10;;;;;;5016931;28;20159;-67
2022/04/20 04:04:30;;;;;;;1.80;0.80;;;17.50;59.20;;;;;;5033430;28;20018;-67
2022/04/20 04:06:55;;;;;;;0.77;0.68;;;17.50;59.20;;;;;;5014666;28;20022;-67
2022/04/20 04:09:21;;;;;;;1.15;0.60;;;17.50;59.30;;;;;;5014860;28;20381;-67
2022/04/20 04:11:47;;;;;;;0.90;0.55;;;17.50;59.30;;;;;;5014557;28;20555;-67
2022/04/20 04:14:12;;;;;;;2.35;0.50;;;17.50;59.30;;;;;;5026850;28;20029;-67
2022/04/20 04:16:39;;;;;;;1.05;0.70;;;17.50;59.30;;;;;;5034178;28;20037;-67
2022/04/20 04:19:08;;;;;;;3.75;0.70;;;17.50;59.30;;;;;;5034478;28;20032;-67
2022/04/20 04:21:38;;;;;;;1.55;0.60;;;17.50;59.30;;;;;;5034117;28;20053;-67
2022/04/20 04:24:07;;;;;;;1.00;0.80;;;17.50;59.30;;;;;;5033299;28;20454;-67
2022/04/20 04:26:34;;;;;;;1.60;0.95;;;17.50;59.30;;;;;;5016575;28;20021;-67
2022/04/20 04:28:59;;;;;;;1.88;0.85;;;17.50;59.30;;;;;;5034019;28;20430;-67
2022/04/20 04:31:25;;;;;;;1.55;0.85;;;17.50;59.40;;;;;;5034081;28;20029;-67
2022/04/20 04:33:51;;;;;;;1.27;0.73;;;17.50;59.40;;;;;;5034041;28;20034;-67
2022/04/20 04:36:16;;;;;;;0.75;0.70;;;17.50;59.40;;;;;;5032731;28;20495;-67
2022/04/20 04:38:43;;;;;;;1.48;0.90;;;17.50;59.40;;;;;;5033840;28;20053;-67
2022/04/20 04:41:09;;;;;;;0.70;0.70;;;17.50;59.40;;;;;;5032636;28;20091;-67
2022/04/20 04:43:35;;;;;;;1.02;0.52;;;17.50;59.40;;;;;;5033895;28;20439;-67
2022/04/20 04:48:48;;;;;;;1.27;0.63;;;17.50;59.50;;;;;;5033812;28;20040;-67
2022/04/20 04:51:14;;;;;;;1.02;0.70;;;17.50;59.50;;;;;;5033720;28;20052;-67
2022/04/20 04:53:40;;;;;;;1.42;0.60;;;17.50;59.50;;;;;;5032344;28;20029;-67
2022/04/20 04:56:05;;;;;;;1.30;0.50;;;17.50;59.50;;;;;;5033689;28;20037;-67
2022/04/20 04:58:31;;;;;;;0.93;0.60;;;17.50;59.50;;;;;;5033263;28;20112;-67
2022/04/20 05:00:58;;;;;;;1.25;0.70;;;17.50;59.50;;;;;;5033436;28;20029;-67
2022/04/20 05:03:24;;;;;;;2.80;0.75;;;17.50;59.50;;;;;;5032388;28;20014;-67
2022/04/20 05:05:49;;;;;;;3.75;0.82;;;17.50;59.60;;;;;;5033320;28;20083;-67
2022/04/20 05:08:15;;;;;;;0.60;0.45;;;17.50;59.60;;;;;;5033331;28;20025;-67
2022/04/20 05:10:41;;;;;;;0.73;0.52;;;17.50;59.60;;;;;;5033385;28;20034;-67
2022/04/20 05:13:07;;;;;;;0.60;0.43;;;17.50;59.60;;;;;;5031736;28;20067;-67
2022/04/20 05:15:33;;;;;;;3.25;0.60;;;17.50;59.70;;;;;;5033213;28;20025;-67
2022/04/20 05:17:59;;;;;;;1.00;0.63;;;17.50;59.60;;;;;;5033326;28;20579;-67
2022/04/20 05:20:24;;;;;;;0.90;0.55;;;17.50;59.70;;;;;;5033159;28;20115;-67
2022/04/20 05:22:50;;;;;;;0.70;0.60;;;17.50;59.70;;;;;;5031711;28;20053;-67
2022/04/20 05:25:16;;;;;;;1.30;0.60;;;17.50;59.80;;;;;;5032875;28;20032;-67
2022/04/20 05:27:42;;;;;;;0.40;0.38;;;17.50;59.80;;;;;;5032727;28;20480;-67
2022/04/20 05:30:08;;;;;;;0.55;0.55;;;17.50;59.80;;;;;;5033158;28;20033;-67
2022/04/20 05:32:34;;;;;;;3.03;0.95;;;17.50;59.80;;;;;;5031771;28;20022;-67
2022/04/20 05:35:01;;;;;;;0.88;0.55;;;17.50;59.80;;;;;;5032856;28;20041;-67
2022/04/20 05:42:59;;;;;;;4.13;0.70;;;17.50;59.90;;;;;;5035434;28;20032;-67
2022/04/20 05:45:28;;;;;;;0.90;0.52;;;17.50;60.00;;;;;;5032847;28;20022;-67
2022/04/20 05:47:54;;;;;;;1.38;0.80;;;17.50;60.00;;;;;;5030756;28;20144;-67
2022/04/20 05:50:19;;;;;;;3.70;0.73;;;17.50;60.00;;;;;;5032996;28;20100;-67
2022/04/20 05:52:45;;;;;;;1.27;0.68;;;17.50;60.00;;;;;;5031290;28;20123;-68
2022/04/20 05:55:10;;;;;;;0.95;0.50;;;17.50;60.00;;;;;;5033106;28;20034;-67
2022/04/20 05:57:37;;;;;;;0.90;0.70;;;17.50;60.00;;;;;;5032936;28;20022;-67
2022/04/20 06:00:07;;;;;;;1.20;0.70;;;17.50;60.00;;;;;;5028709;28;20030;-67
2022/04/20 06:02:33;;;;;;;1.58;0.70;;;17.60;60.20;;;;;;5030561;28;20431;-67
2022/04/20 06:05:00;;;;;;;1.05;0.70;;;17.50;61.10;;;;;;5033496;28;20446;-67
2022/04/20 06:07:26;;;;;;;1.73;0.70;;;17.50;60.10;;;;;;5032728;28;20009;-67
2022/04/20 06:09:52;;;;;;;2.55;1.20;;;17.50;60.00;;;;;;5030403;28;20455;-63
2022/04/20 06:12:19;;;;;;;1.00;0.80;;;17.50;59.90;;;;;;5034949;28;20026;-63
2022/04/20 06:14:46;;;;;;;1.83;0.80;;;17.50;59.80;;;;;;5030427;28;20040;-63
2022/04/20 06:17:12;;;;;;;2.20;0.75;;;17.50;59.80;;;;;;5030598;28;20578;-63
2022/04/20 06:19:37;;;;;;;1.40;0.85;;;17.50;59.80;;;;;;5030552;28;20104;-63
2022/04/20 06:22:03;;;;;;;1.77;1.00;;;17.40;59.70;;;;;;5030642;28;20561;-63
2022/04/20 06:24:31;;;;;;;2.05;0.90;;;17.40;59.70;;;;;;5029885;28;20493;-63
2022/04/20 06:26:56;;;;;;;0.70;0.70;;;17.40;59.70;;;;;;5037194;28;20014;-63
2022/04/20 06:29:22;;;;;;;2.13;0.90;;;17.40;59.70;;;;;;5030488;28;20024;-63
2022/04/20 06:31:48;;;;;;;1.23;0.70;;;17.40;59.60;;;;;;5030329;28;20488;-63
2022/04/20 06:34:13;;;;;;;3.45;1.20;;;17.40;59.60;;;;;;5030056;28;20108;-63
2022/04/20 06:36:39;;;;;;;1.95;1.08;;;17.40;59.60;;;;;;5032297;28;20021;-63
2022/04/20 06:39:05;;;;;;;1.20;0.77;;;17.40;59.60;;;;;;5036289;28;20049;-63
2022/04/20 06:41:31;;;;;;;1.13;1.02;;;17.40;59.50;;;;;;5034342;28;20029;-63
2022/04/20 06:43:57;;;;;;;1.40;1.00;;;17.40;59.50;;;;;;5033052;28;20064;-63
2022/04/20 06:46:23;;;;;;;3.15;0.80;;;17.40;59.50;;;;;;5038182;28;20020;-63
2022/04/20 06:48:49;;;;;;;2.67;1.00;;;17.40;59.50;;;;;;5034268;28;20064;-63
2022/04/20 06:51:15;;;;;;;2.47;1.00;;;17.40;59.50;;;;;;5036759;28;20061;-63
2022/04/20 06:59:13;;;;;;;3.10;1.00;;;17.40;59.50;;;;;;5030594;28;20060;-63
2022/04/20 07:01:39;;;;;;;1.13;0.85;;;17.30;59.50;;;;;;4998299;28;20037;-63
2022/04/20 07:04:05;;;;;;;5.93;1.27;;;17.30;59.50;;;;;;5010687;28;20042;-63
2022/04/20 07:06:31;;;;;;;2.75;1.15;;;17.30;59.40;;;;;;5023026;28;20112;-63
2022/04/20 07:08:57;;;;;;;2.25;1.13;;;17.30;59.50;;;;;;5020075;28;20080;-63
2022/04/20 07:11:23;;;;;;;3.15;0.98;;;17.40;59.50;;;;;;5012106;28;20033;-63
2022/04/20 07:13:50;;;;;;;5.07;1.15;;;17.40;59.50;;;;;;5030463;28;20041;-63
2022/04/20 07:16:15;;;;;;;2.05;1.15;;;17.30;59.40;;;;;;5033393;28;20080;-63
2022/04/20 07:18:41;;;;;;;3.85;1.60;;;17.30;59.40;;;;;;5016927;28;20034;-63
2022/04/20 07:21:07;;;;;;;4.82;1.30;;;17.30;59.40;;;;;;5026405;28;20026;-63
2022/04/20 07:23:32;;;;;;;1.95;1.10;;;17.30;59.40;;;;;;5013373;28;20042;-63
2022/04/20 07:25:58;;;;;;;4.70;1.10;;;17.30;59.40;;;;;;5013341;28;20096;-63
2022/04/20 07:28:23;;;;;;;4.22;1.70;;;17.30;59.40;;;;;;5013491;28;20512;-63
2022/04/20 07:30:49;;;;;;;4.78;1.60;;;17.30;59.40;;;;;;5013435;28;20556;-63
2022/04/20 07:33:15;;;;;;;2.10;1.35;;;17.30;59.40;;;;;;5013356;28;20052;-63
2022/04/20 07:35:42;;;;;;;3.35;1.50;;;17.30;59.40;;;;;;5013912;28;20061;-63
2022/04/20 07:38:08;;;;;;;8.63;1.67;;;17.30;59.40;;;;;;5053250;28;20512;-63
2022/04/20 07:40:34;;;;;;;3.33;1.30;;;17.30;59.50;;;;;;5033933;28;20057;-63
2022/04/20 07:42:59;;;;;;;3.60;1.30;;;17.30;59.40;;;;;;5034904;28;20083;-63
2022/04/20 07:45:25;;;;;;;3.05;1.20;;;17.30;59.40;;;;;;5034079;28;20049;-63
2022/04/20 07:47:55;;;;;;;6.80;1.48;;;17.30;59.40;;;;;;5033314;28;20022;-63
2022/04/20 07:50:23;;;;;;;3.85;1.63;;;17.30;59.40;;;;;;5034899;28;20045;-63
2022/04/20 07:52:56;;;;;;;5.40;1.30;;;17.30;59.50;;;;;;5034698;28;20058;-63
2022/04/20 07:55:28;;;;;;;5.28;2.13;;;17.30;59.40;;;;;;5034949;28;20026;-63
2022/04/20 07:57:56;;;;;;;5.53;1.98;;;17.30;59.50;;;;;;5034700;28;20026;-63
2022/04/20 08:00:22;;;;;;;4.20;1.30;;;17.30;59.50;;;;;;5034672;28;20496;-63
2022/04/20 08:02:48;;;;;;;6.15;1.60;;;17.30;59.50;;;;;;5033406;28;20033;-63
2022/04/20 08:05:15;;;;;;;6.60;1.80;;;17.30;59.50;;;;;;5034557;28;20029;-63
2022/04/20 08:07:42;;;;;;;6.50;2.22;;;17.30;59.50;;;;;;5034279;28;20503;-63
2022/04/20 08:10:08;;;;;;;2.20;1.42;;;17.30;59.60;;;;;;5033253;28;20051;-63
2022/04/20 08:12:35;;;;;;;2.92;1.80;;;17.30;59.50;;;;;;5033418;28;20025;-63
2022/04/20 08:15:01;;;;;;;5.63;1.75;;;17.30;59.50;;;;;;5034285;28;20079;-63
2022/04/20 08:17:27;;;;;;;5.03;1.83;;;17.30;59.50;;;;;;5034652;28;20033;-63
2022/04/20 08:19:52;;;;;;;3.67;2.13;;;17.30;59.50;;;;;;5034161;28;20032;-63
2022/04/20 08:22:18;;;;;;;6.15;1.70;;;17.30;59.60;;;;;;5033900;28;20030;-63
2022/04/20 08:24:45;;;;;;;5.13;2.17;;;17.30;59.60;;;;;;5034380;28;20369;-63
2022/04/20 08:27:11;;;;;;;3.17;1.50;;;17.30;59.50;;;;;;5034170;28;20483;-63
2022/04/20 08:29:37;;;;;;;3.25;1.60;;;17.20;59.50;;;;;;5016809;28;20404;-63
2022/04/20 08:32:02;;;;;;;3.40;1.73;;;17.20;59.50;;;;;;5034077;28;20029;-63
2022/04/20 08:34:28;;;;;;;4.38;1.65;;;17.30;59.50;;;;;;5034200;28;20021;-63
2022/04/20 08:36:54;;;;;;;3.35;1.45;;;17.30;59.50;;;;;;5033742;28;20029;-63
2022/04/20 08:39:19;;;;;;;5.05;1.77;;;17.20;59.50;;;;;;5034021;28;20046;-63
2022/04/20 08:41:48;;;;;;;4.53;1.70;;;17.20;59.60;;;;;;5032611;28;20439;-63
2022/04/20 08:44:14;;;;;;;6.00;1.90;;;17.20;59.50;;;;;;5033861;28;20043;-63
2022/04/20 08:46:43;;;;;;;3.53;1.55;;;17.20;59.50;;;;;;5033979;28;20033;-63
2022/04/20 08:49:08;;;;;;;5.55;1.70;;;17.20;59.60;;;;;;5032820;28;20439;-63
2022/04/20 08:54:19;;;;;;;4.57;1.55;;;17.20;59.50;;;;;;5032767;28;20032;-63
2022/04/20 08:59:31;;;;;;;4.05;1.80;;;17.20;59.50;;;;;;5033578;28;20056;-63
2022/04/20 09:01:58;;;;;;;3.75;1.50;;;17.20;59.60;;;;;;5015987;28;20025;-63
2022/04/20 09:04:24;;;;;;;4.53;1.63;;;17.20;59.50;;;;;;5015768;28;20045;-63
2022/04/20 09:06:50;;;;;;;3.70;1.25;;;17.20;59.50;;;;;;5032433;28;20056;-63
2022/04/20 09:09:18;;;;;;;4.32;1.65;;;17.20;59.50;;;;;;5033515;28;20449;-63
2022/04/20 09:11:43;;;;;;;2.47;1.30;;;17.20;59.50;;;;;;5032054;28;20052;-63
2022/04/20 09:14:16;;;;;;;2.58;1.48;;;17.20;59.50;;;;;;5015780;28;20079;-63
2022/04/20 09:16:43;;;;;;;3.20;1.73;;;17.30;59.50;;;;;;5032338;28;20026;-63
2022/04/20 09:19:08;;;;;;;4.32;1.50;;;17.20;59.50;;;;;;5033103;28;20044;-63
2022/04/20 09:21:34;;;;;;;2.70;1.63;;;17.20;59.50;;;;;;5033082;28;20029;-63
2022/04/20 09:24:10;;;;;;;5.75;1.50;;;17.20;59.50;;;;;;5033160;28;20022;-63
2022/04/20 09:26:53;;;;;;;4.40;1.35;;;17.30;59.50;;;;;;5033168;28;20071;-63
2022/04/20 09:29:20;;;;;;;3.65;1.83;;;17.20;59.50;;;;;;5032247;28;20025;-63
2022/04/20 09:31:55;;;;;;;2.50;1.50;;;17.20;59.50;;;;;;5033001;28;20025;-63
2022/04/20 09:34:33;;;;;;;4.82;2.10;;;17.20;59.50;;;;;;5032762;28;20045;-63
2022/04/20 09:37:12;;;;;;;4.28;1.60;;;17.30;59.50;;;;;;5032708;28;20038;-63
2022/04/20 09:39:38;;;;;;;5.97;1.88;;;17.20;59.60;;;;;;5031974;28;20112;-63
2022/04/20 09:42:05;;;;;;;3.30;1.63;;;17.20;59.50;;;;;;5032716;28;20117;-63
2022/04/20 09:44:31;;;;;;;3.40;2.00;;;17.20;59.60;;;;;;5032702;28;20021;-63
2022/04/20 09:49:56;;;;;;;2.65;1.58;;;17.20;59.50;;;;;;5032771;28;20447;-63
2022/04/20 09:52:23;;;;;;;3.30;2.00;;;17.30;59.60;;;;;;5032732;28;20381;-63
2022/04/20 09:54:53;;;;;;;3.70;1.70;;;17.20;59.60;;;;;;5032927;28;20033;-63
2022/04/20 09:57:19;;;;;;;3.13;1.55;;;17.30;59.60;;;;;;5031565;28;20044;-63
2022/04/20 10:00:10;;;;;;;3.92;1.80;;;17.20;59.60;;;;;;5032600;28;20059;-63
2022/04/20 10:02:47;;;;;;;5.38;1.92;;;17.30;59.50;;;;;;5032406;28;20372;-63
2022/04/20 10:05:14;;;;;;;3.67;1.88;;;17.30;59.60;;;;;;5032308;28;20018;-63
2022/04/20 10:07:40;;;;;;;2.85;1.98;;;17.20;59.70;;;;;;5031459;28;20036;-63
2022/04/20 10:10:07;;;;;;;2.03;1.38;;;17.20;59.60;;;;;;5032405;28;20396;-63
2022/04/20 10:12:32;;;;;;;3.22;1.80;;;17.20;59.60;;;;;;5031427;28;20017;-63
2022/04/20 10:17:47;;;;;;;6.95;2.33;;;17.30;59.60;;;;;;5031147;28;20028;-63
2022/04/20 10:20:12;;;;;;;3.03;1.30;;;17.20;60.60;;;;;;5031109;28;20029;-63
2022/04/20 10:22:42;;;;;;;3.38;2.13;;;17.20;59.60;;;;;;5032397;28;20030;-63
2022/04/20 10:25:08;;;;;;;4.20;1.77;;;17.20;59.70;;;;;;5015170;28;20040;-63
2022/04/20 10:27:58;;;;;;;2.38;1.40;;;17.20;59.70;;;;;;5032279;28;20476;-63
2022/04/20 10:30:43;;;;;;;2.80;1.40;;;17.30;59.60;;;;;;5032267;28;20392;-63
2022/04/20 10:33:12;;;;;;;3.15;1.77;;;17.30;59.60;;;;;;5030935;28;20562;-63
2022/04/20 10:36:05;;;;;;;4.45;1.70;;;17.20;59.70;;;;;;5015036;28;20051;-63
2022/04/20 10:38:31;;;;;;;2.13;1.40;;;17.30;59.60;;;;;;5031774;28;20095;-63
2022/04/20 10:41:06;;;;;;;1.98;1.60;;;17.20;59.70;;;;;;5030881;28;20032;-63
2022/04/20 10:43:31;;;;;;;3.78;1.60;;;17.20;59.70;;;;;;5031130;28;20030;-63
2022/04/20 10:46:16;;;;;;;2.95;1.70;;;17.20;59.70;;;;;;5030911;28;20033;-63
2022/04/20 10:48:58;;;;;;;1.60;1.30;;;17.20;59.70;;;;;;5031024;28;20021;-63
2022/04/20 10:51:34;;;;;;;4.00;1.20;;;17.30;59.80;;;;;;5032193;28;20021;-63
2022/04/20 10:54:29;;;;;;;2.78;1.63;;;17.20;59.70;;;;;;5031984;28;20447;-63
2022/04/20 10:57:05;;;;;;;2.25;1.40;;;17.30;59.80;;;;;;5032110;28;20044;-63
2022/04/20 10:59:32;;;;;;;2.78;1.75;;;17.20;59.80;;;;;;5032040;28;20033;-63
2022/04/20 11:02:03;;;;;;;3.00;1.50;;;17.20;59.80;;;;;;5030684;28;20026;-63
2022/04/20 11:04:32;;;;;;;3.63;1.67;;;17.30;59.80;;;;;;5031855;28;20025;-63
2022/04/20 11:07:01;;;;;;;3.50;1.40;;;17.20;59.70;;;;;;5031792;28;20052;-63
2022/04/20 11:09:42;;;;;;;2.35;1.20;;;17.20;59.70;;;;;;5032041;28;20022;-63
2022/04/20 11:21:04;;;;;;;4.70;1.55;;;17.30;59.80;;;;;;5032134;28;20048;-63
2022/04/20 11:23:54;;;;;;;3.17;1.70;;;17.20;59.80;;;;;;5033322;28;20048;-63
2022/04/20 11:26:29;;;;;;;3.28;1.70;;;17.20;59.80;;;;;;5035334;28;20079;-63
2022/04/20 11:28:56;;;;;;;3.40;1.60;;;17.20;59.80;;;;;;5035214;28;20032;-63
2022/04/20 11:31:22;;;;;;;2.92;1.58;;;17.20;59.80;;;;;;5035532;28;20017;-63
2022/04/20 11:33:49;;;;;;;2.90;1.42;;;17.20;59.80;;;;;;5035326;28;20052;-63
2022/04/20 11:36:15;;;;;;;2.30;1.50;;;17.20;59.80;;;;;;5033951;28;20041;-63
2022/04/20 11:38:42;;;;;;;4.88;2.05;;;17.20;59.80;;;;;;5035230;28;20111;-63
2022/04/20 11:41:12;;;;;;;1.73;1.50;;;17.20;59.80;;;;;;5033661;28;20022;-63
2022/04/20 11:43:40;;;;;;;2.75;1.42;;;17.20;59.80;;;;;;5034896;28;20480;-63
2022/04/20 11:46:07;;;;;;;4.28;1.70;;;17.30;59.80;;;;;;5033885;28;20029;-63
2022/04/20 11:48:35;;;;;;;2.42;1.45;;;17.30;59.80;;;;;;5033751;28;20021;-63
2022/04/20 11:51:01;;;;;;;3.13;1.50;;;17.20;59.80;;;;;;5035130;28;20026;-63
2022/04/20 11:53:34;;;;;;;2.60;1.40;;;17.20;59.80;;;;;;5035185;28;20101;-63
2022/04/20 11:56:01;;;;;;;3.10;1.70;;;17.30;59.80;;;;;;5035028;28;20034;-63
2022/04/20 11:58:27;;;;;;;2.20;1.10;;;17.30;60.30;;;;;;5034448;28;20030;-63
2022/04/20 12:01:06;;;;;;;2.40;1.30;;;17.20;59.80;;;;;;5033761;28;20510;-63
2022/04/20 12:03:32;;;;;;;4.15;2.13;;;17.30;59.80;;;;;;5034815;28;20172;-63
2022/04/20 12:06:05;;;;;;;2.58;1.50;;;17.20;59.80;;;;;;5034557;28;20052;-63
2022/04/20 12:08:32;;;;;;;2.70;1.98;;;17.30;59.80;;;;;;5034625;28;20018;-63
2022/04/20 12:11:00;;;;;;;3.08;1.70;;;17.30;59.90;;;;;;5033448;28;20511;-63
2022/04/20 12:13:29;;;;;;;3.00;1.38;;;17.20;59.80;;;;;;5034205;28;20396;-63
2022/04/20 12:16:08;;;;;;;1.92;1.50;;;17.30;59.90;;;;;;5033561;28;20441;-63
2022/04/20 12:18:41;;;;;;;2.70;1.40;;;17.30;59.90;;;;;;5034432;28;20052;-63
2022/04/20 12:21:27;;;;;;;3.42;1.50;;;17.30;59.90;;;;;;5033229;28;20022;-63
2022/04/20 12:23:53;;;;;;;2.80;1.60;;;17.30;59.90;;;;;;5033718;28;20038;-63
2022/04/20 12:26:28;;;;;;;2.42;1.70;;;17.30;59.90;;;;;;5034209;28;20021;-63
2022/04/20 12:29:03;;;;;;;2.28;1.30;;;17.30;59.80;;;;;;5034024;28;20013;-63
2022/04/20 12:31:29;;;;;;;2.55;1.50;;;17.30;59.90;;;;;;5034233;28;20431;-63
2022/04/20 12:34:01;;;;;;;1.95;1.40;;;17.30;59.90;;;;;;5034291;28;20036;-63
2022/04/20 12:36:27;;;;;;;1.67;1.40;;;17.30;59.90;;;;;;5032031;28;20021;-63
2022/04/20 12:38:53;;;;;;;2.85;1.67;;;17.30;59.90;;;;;;5016210;28;20399;-63
2022/04/20 12:41:38;;;;;;;1.55;1.45;;;17.30;59.90;;;;;;5033635;28;20026;-63
2022/04/20 12:44:46;;;;;;;1.73;1.40;;;17.30;59.80;;;;;;5032924;28;20045;-63
2022/04/20 12:47:12;;;;;;;1.95;1.60;;;17.30;59.80;;;;;;5032673;28;20025;-63
2022/04/20 12:49:38;;;;;;;1.73;1.38;;;17.30;60.00;;;;;;5033876;28;20029;-63
2022/04/20 12:52:12;;;;;;;1.77;1.52;;;17.30;60.00;;;;;;5033858;28;20024;-63
2022/04/20 12:54:37;;;;;;;3.45;1.65;;;17.30;59.90;;;;;;5032996;28;20022;-63
2022/04/20 13:03:09;;;;;;;1.67;1.50;;;17.30;59.90;;;;;;5033425;28;20515;-63
2022/04/20 13:05:40;;;;;;;3.70;1.60;;;17.30;60.00;;;;;;5033459;28;20025;-63
2022/04/20 13:08:06;;;;;;;2.60;1.30;;;17.30;60.10;;;;;;5033720;28;20120;-63
2022/04/20 13:10:42;;;;;;;2.00;1.50;;;17.30;60.00;;;;;;5032163;28;20025;-63
2022/04/20 13:13:08;;;;;;;1.50;1.40;;;17.30;60.00;;;;;;5033344;28;20037;-63
2022/04/20 13:15:34;;;;;;;1.58;1.30;;;17.30;60.00;;;;;;5033502;28;20566;-63
2022/04/20 13:18:00;;;;;;;2.55;1.52;;;17.30;60.00;;;;;;5032031;28;20025;-63
2022/04/20 13:20:27;;;;;;;2.30;1.55;;;17.40;60.00;;;;;;5033145;28;20032;-63
2022/04/20 13:22:53;;;;;;;2.67;1.80;;;17.30;59.90;;;;;;5033045;28;20022;-63
2022/04/20 13:28:03;;;;;;;2.20;1.20;;;17.40;60.00;;;;;;5033097;28;20084;-63
2022/04/20 13:30:36;;;;;;;2.08;1.80;;;17.40;60.00;;;;;;5032990;28;20494;-63
2022/04/20 13:33:06;;;;;;;2.17;1.73;;;17.40;60.00;;;;;;5032967;28;20033;-63